sensor_id;sensor_type;location;lat;lon;timestamp;pressure;altitude;pressure_sealevel;temperature;humidity
48872;BME280;36154;51.674;7.824;2023-07-08T00:01:55;101036.63;;;23.80;39.57
48872;BME280;36154;51.674;7.824;2023-07-08T00:04:20;101034.06;;;23.78;39.75
48872;BME280;36154;51.674;7.824;2023-07-08T00:06:47;101033.28;;;23.76;39.68
48872;BME280;36154;51.674;7.824;2023-07-08T00:09:13;101021.25;;;23.74;39.91
48872;BME280;36154;51.674;7.824;2023-07-08T00:11:38;101031.66;;;23.74;39.98
48872;BME280;36154;51.674;7.824;2023-07-08T00:14:04;101029.94;;;23.73;39.95
48872;BME280;36154;51.674;7.824;2023-07-08T00:16:29;101025.72;;;23.70;40.05
48872;BME280;36154;51.674;7.824;2023-07-08T00:18:55;101019.66;;;23.70;40.07
48872;BME280;36154;51.674;7.824;2023-07-08T00:21:21;101024.00;;;23.69;39.87
48872;BME280;36154;51.674;7.824;2023-07-08T00:23:48;101011.06;;;23.68;39.74
48872;BME280;36154;51.674;7.824;2023-07-08T00:26:26;101012.88;;;23.66;39.74
48872;BME280;36154;51.674;7.824;2023-07-08T00:28:53;101016.38;;;23.65;40.08
48872;BME280;36154;51.674;7.824;2023-07-08T00:31:20;101011.16;;;23.65;40.15
48872;BME280;36154;51.674;7.824;2023-07-08T00:33:52;101014.69;;;23.63;39.67
48872;BME280;36154;51.674;7.824;2023-07-08T00:36:21;101020.00;;;23.60;40.10
48872;BME280;36154;51.674;7.824;2023-07-08T00:38:47;101020.00;;;23.60;40.12
48872;BME280;36154;51.674;7.824;2023-07-08T00:41:27;101013.09;;;23.59;40.12
48872;BME280;36154;51.674;7.824;2023-07-08T00:43:55;101012.28;;;23.57;39.95
48872;BME280;36154;51.674;7.824;2023-07-08T00:49:32;101006.31;;;23.55;40.51
48872;BME280;36154;51.674;7.824;2023-07-08T00:52:35;101002.84;;;23.53;40.31
48872;BME280;36154;51.674;7.824;2023-07-08T00:55:05;100996.81;;;23.53;40.18
48872;BME280;36154;51.674;7.824;2023-07-08T00:57:35;100999.47;;;23.51;40.09
48872;BME280;36154;51.674;7.824;2023-07-08T01:00:07;101000.38;;;23.50;40.33
48872;BME280;36154;51.674;7.824;2023-07-08T01:02:44;100996.97;;;23.48;40.42
48872;BME280;36154;51.674;7.824;2023-07-08T01:05:17;101000.44;;;23.49;40.10
48872;BME280;36154;51.674;7.824;2023-07-08T01:07:50;100987.50;;;23.47;40.41
48872;BME280;36154;51.674;7.824;2023-07-08T01:10:22;100990.97;;;23.46;40.33
48872;BME280;36154;51.674;7.824;2023-07-08T01:12:55;100990.13;;;23.45;40.34
48872;BME280;36154;51.674;7.824;2023-07-08T01:15:27;100991.88;;;23.45;40.33
48872;BME280;36154;51.674;7.824;2023-07-08T01:17:55;100995.38;;;23.44;40.17
48872;BME280;36154;51.674;7.824;2023-07-08T01:20:21;100991.09;;;23.43;40.18
48872;BME280;36154;51.674;7.824;2023-07-08T01:22:47;100990.25;;;23.42;40.60
48872;BME280;36154;51.674;7.824;2023-07-08T01:25:13;100989.41;;;23.42;40.53
48872;BME280;36154;51.674;7.824;2023-07-08T01:27:42;100974.69;;;23.41;40.36
48872;BME280;36154;51.674;7.824;2023-07-08T01:30:10;100979.00;;;23.42;40.32
48872;BME280;36154;51.674;7.824;2023-07-08T01:32:39;100979.94;;;23.39;40.39
48872;BME280;36154;51.674;7.824;2023-07-08T01:35:09;100968.72;;;23.39;40.68
48872;BME280;36154;51.674;7.824;2023-07-08T01:37:40;100969.59;;;23.38;40.68
48872;BME280;36154;51.674;7.824;2023-07-08T01:42:45;100963.59;;;23.36;40.80
48872;BME280;36154;51.674;7.824;2023-07-08T01:45:13;100963.59;;;23.36;40.49
48872;BME280;36154;51.674;7.824;2023-07-08T01:47:40;100963.59;;;23.36;40.86
48872;BME280;36154;51.674;7.824;2023-07-08T01:50:07;100956.69;;;23.35;40.26
48872;BME280;36154;51.674;7.824;2023-07-08T01:52:35;100955.03;;;23.34;40.67
48872;BME280;36154;51.674;7.824;2023-07-08T01:55:01;100955.03;;;23.34;40.45
48872;BME280;36154;51.674;7.824;2023-07-08T01:57:27;100946.44;;;23.32;40.48
48872;BME280;36154;51.674;7.824;2023-07-08T01:59:53;100953.31;;;23.33;40.78
48872;BME280;36154;51.674;7.824;2023-07-08T02:02:19;100945.56;;;23.31;40.57
48872;BME280;36154;51.674;7.824;2023-07-08T02:04:44;100941.22;;;23.32;40.65
48872;BME280;36154;51.674;7.824;2023-07-08T02:07:10;100943.88;;;23.30;40.59
48872;BME280;36154;51.674;7.824;2023-07-08T02:09:35;100947.38;;;23.29;40.78
48872;BME280;36154;51.674;7.824;2023-07-08T02:12:01;100944.81;;;23.27;40.84
48872;BME280;36154;51.674;7.824;2023-07-08T02:14:27;100937.03;;;23.27;40.77
48872;BME280;36154;51.674;7.824;2023-07-08T02:16:52;100939.63;;;23.27;41.05
48872;BME280;36154;51.674;7.824;2023-07-08T02:19:19;100927.53;;;23.26;40.74
48872;BME280;36154;51.674;7.824;2023-07-08T02:21:47;100925.84;;;23.25;41.04
48872;BME280;36154;51.674;7.824;2023-07-08T02:24:12;100931.03;;;23.25;40.97
48872;BME280;36154;51.674;7.824;2023-07-08T02:26:38;100936.25;;;23.25;40.55
48872;BME280;36154;51.674;7.824;2023-07-08T02:29:04;100931.09;;;23.24;40.85
48872;BME280;36154;51.674;7.824;2023-07-08T02:31:29;100932.84;;;23.23;40.77
48872;BME280;36154;51.674;7.824;2023-07-08T02:33:55;100931.16;;;23.22;40.98
48872;BME280;36154;51.674;7.824;2023-07-08T02:36:21;100927.81;;;23.19;41.14
48872;BME280;36154;51.674;7.824;2023-07-08T02:38:47;100932.19;;;23.18;41.29
48872;BME280;36154;51.674;7.824;2023-07-08T02:41:12;100927.75;;;23.20;41.13
48872;BME280;36154;51.674;7.824;2023-07-08T02:43:41;100922.56;;;23.20;41.00
48872;BME280;36154;51.674;7.824;2023-07-08T02:46:07;100918.19;;;23.21;40.96
48872;BME280;36154;51.674;7.824;2023-07-08T02:48:32;100916.50;;;23.20;41.20
48872;BME280;36154;51.674;7.824;2023-07-08T02:50:59;100930.41;;;23.19;41.14
48872;BME280;36154;51.674;7.824;2023-07-08T02:53:26;100914.81;;;23.19;41.17
48872;BME280;36154;51.674;7.824;2023-07-08T02:55:51;100925.25;;;23.17;40.96
48872;BME280;36154;51.674;7.824;2023-07-08T02:58:17;100922.66;;;23.17;41.04
48872;BME280;36154;51.674;7.824;2023-07-08T03:00:42;100930.50;;;23.16;40.91
48872;BME280;36154;51.674;7.824;2023-07-08T03:03:08;100926.16;;;23.16;40.84
48872;BME280;36154;51.674;7.824;2023-07-08T03:05:34;100926.22;;;23.15;40.97
48872;BME280;36154;51.674;7.824;2023-07-08T03:07:59;100922.78;;;23.14;40.96
48872;BME280;36154;51.674;7.824;2023-07-08T03:10:26;100922.81;;;23.13;41.11
48872;BME280;36154;51.674;7.824;2023-07-08T03:12:51;100922.81;;;23.13;41.08
48872;BME280;36154;51.674;7.824;2023-07-08T03:15:17;100923.78;;;23.10;41.16
48872;BME280;36154;51.674;7.824;2023-07-08T03:17:43;100919.47;;;23.09;41.10
48872;BME280;36154;51.674;7.824;2023-07-08T03:20:10;100919.53;;;23.07;41.02
48872;BME280;36154;51.674;7.824;2023-07-08T03:22:36;100922.19;;;23.06;41.32
48872;BME280;36154;51.674;7.824;2023-07-08T03:25:02;100921.34;;;23.05;41.33
48872;BME280;36154;51.674;7.824;2023-07-08T03:27:28;100916.19;;;23.04;41.41
48872;BME280;36154;51.674;7.824;2023-07-08T03:29:54;100924.03;;;23.02;41.18
48872;BME280;36154;51.674;7.824;2023-07-08T03:32:19;100925.91;;;22.99;41.15
48872;BME280;36154;51.674;7.824;2023-07-08T03:34:45;100927.72;;;22.97;41.06
48872;BME280;36154;51.674;7.824;2023-07-08T03:37:11;100927.78;;;22.95;41.31
48872;BME280;36154;51.674;7.824;2023-07-08T03:39:37;100923.41;;;22.96;41.49
48872;BME280;36154;51.674;7.824;2023-07-08T03:42:03;100929.56;;;22.93;41.33
48872;BME280;36154;51.674;7.824;2023-07-08T03:44:29;100929.63;;;22.92;41.54
48872;BME280;36154;51.674;7.824;2023-07-08T03:46:55;100927.91;;;22.91;41.70
48872;BME280;36154;51.674;7.824;2023-07-08T03:49:22;100927.13;;;22.88;41.44
48872;BME280;36154;51.674;7.824;2023-07-08T03:51:52;100923.75;;;22.86;41.99
48872;BME280;36154;51.674;7.824;2023-07-08T03:54:23;100911.63;;;22.85;42.02
48872;BME280;36154;51.674;7.824;2023-07-08T03:56:50;100920.31;;;22.84;41.79
48872;BME280;36154;51.674;7.824;2023-07-08T03:59:15;100929.03;;;22.83;42.11
48872;BME280;36154;51.674;7.824;2023-07-08T04:01:41;100929.09;;;22.82;42.23
48872;BME280;36154;51.674;7.824;2023-07-08T04:04:09;100925.59;;;22.81;42.33
48872;BME280;36154;51.674;7.824;2023-07-08T04:06:36;100936.91;;;22.80;42.41
48872;BME280;36154;51.674;7.824;2023-07-08T04:09:02;100934.31;;;22.80;42.29
48872;BME280;36154;51.674;7.824;2023-07-08T04:11:28;100936.09;;;22.78;42.41
48872;BME280;36154;51.674;7.824;2023-07-08T04:13:54;100934.41;;;22.77;42.28
48872;BME280;36154;51.674;7.824;2023-07-08T04:16:28;100937.88;;;22.76;42.38
48872;BME280;36154;51.674;7.824;2023-07-08T04:18:56;100944.78;;;22.77;42.63
48872;BME280;36154;51.674;7.824;2023-07-08T04:21:23;100944.78;;;22.77;42.68
48872;BME280;36154;51.674;7.824;2023-07-08T04:23:50;100944.78;;;22.77;42.43
48872;BME280;36154;51.674;7.824;2023-07-08T04:26:16;100946.53;;;22.77;42.70
48872;BME280;36154;51.674;7.824;2023-07-08T04:28:44;100937.88;;;22.76;42.50
48872;BME280;36154;51.674;7.824;2023-07-08T04:31:10;100944.84;;;22.76;42.54
48872;BME280;36154;51.674;7.824;2023-07-08T04:33:36;100944.84;;;22.76;42.70
48872;BME280;36154;51.674;7.824;2023-07-08T04:36:01;100948.28;;;22.76;42.67
48872;BME280;36154;51.674;7.824;2023-07-08T04:38:28;100953.47;;;22.76;42.46
48872;BME280;36154;51.674;7.824;2023-07-08T04:40:54;100950.03;;;22.76;42.43
48872;BME280;36154;51.674;7.824;2023-07-08T04:43:20;100956.94;;;22.77;42.53
48872;BME280;36154;51.674;7.824;2023-07-08T04:45:51;100961.31;;;22.75;42.44
48872;BME280;36154;51.674;7.824;2023-07-08T04:48:19;100966.50;;;22.75;42.61
48872;BME280;36154;51.674;7.824;2023-07-08T04:50:50;100960.41;;;22.76;42.44
48872;BME280;36154;51.674;7.824;2023-07-08T04:53:16;100963.84;;;22.76;42.92
48872;BME280;36154;51.674;7.824;2023-07-08T04:55:44;100959.53;;;22.77;42.63
48872;BME280;36154;51.674;7.824;2023-07-08T04:58:12;100960.38;;;22.77;42.74
48872;BME280;36154;51.674;7.824;2023-07-08T05:00:37;100966.41;;;22.78;42.58
48872;BME280;36154;51.674;7.824;2023-07-08T05:03:03;100962.09;;;22.78;42.60
48872;BME280;36154;51.674;7.824;2023-07-08T05:05:29;100963.75;;;22.79;42.52
48872;BME280;36154;51.674;7.824;2023-07-08T05:07:55;100957.69;;;22.80;42.59
48872;BME280;36154;51.674;7.824;2023-07-08T05:10:22;100955.91;;;22.81;42.85
48872;BME280;36154;51.674;7.824;2023-07-08T05:12:48;100959.34;;;22.81;42.78
48872;BME280;36154;51.674;7.824;2023-07-08T05:15:14;100955.00;;;22.83;42.66
48872;BME280;36154;51.674;7.824;2023-07-08T05:17:41;100949.81;;;22.83;42.82
48872;BME280;36154;51.674;7.824;2023-07-08T05:20:10;100951.50;;;22.84;42.63
48872;BME280;36154;51.674;7.824;2023-07-08T05:22:36;100947.13;;;22.86;42.79
48872;BME280;36154;51.674;7.824;2023-07-08T05:25:02;100949.72;;;22.86;42.74
48872;BME280;36154;51.674;7.824;2023-07-08T05:27:29;100947.91;;;22.88;42.85
48872;BME280;36154;51.674;7.824;2023-07-08T05:29:56;100940.91;;;22.91;42.65
48872;BME280;36154;51.674;7.824;2023-07-08T05:32:21;100940.91;;;22.91;42.84
48872;BME280;36154;51.674;7.824;2023-07-08T05:34:47;100940.88;;;22.92;43.16
48872;BME280;36154;51.674;7.824;2023-07-08T05:37:13;100946.78;;;22.96;42.83
48872;BME280;36154;51.674;7.824;2023-07-08T05:39:40;100945.91;;;22.97;42.81
48872;BME280;36154;51.674;7.824;2023-07-08T05:42:05;100942.38;;;22.98;43.03
48872;BME280;36154;51.674;7.824;2023-07-08T05:44:32;100938.84;;;23.00;43.02
48872;BME280;36154;51.674;7.824;2023-07-08T05:46:57;100926.78;;;22.98;42.97
48872;BME280;36154;51.674;7.824;2023-07-08T05:49:23;100944.84;;;23.02;42.96
48872;BME280;36154;51.674;7.824;2023-07-08T05:51:48;100943.03;;;23.04;42.85
48872;BME280;36154;51.674;7.824;2023-07-08T05:54:14;100938.69;;;23.05;43.00
48872;BME280;36154;51.674;7.824;2023-07-08T05:56:40;100930.81;;;23.06;42.80
48872;BME280;36154;51.674;7.824;2023-07-08T05:59:06;100942.03;;;23.08;43.19
48872;BME280;36154;51.674;7.824;2023-07-08T06:01:31;100942.00;;;23.10;42.86
48872;BME280;36154;51.674;7.824;2023-07-08T06:03:57;100941.06;;;23.11;43.03
48872;BME280;36154;51.674;7.824;2023-07-08T06:06:26;100936.66;;;23.13;43.16
48872;BME280;36154;51.674;7.824;2023-07-08T06:08:53;100938.38;;;23.14;42.89
48872;BME280;36154;51.674;7.824;2023-07-08T06:11:19;100934.88;;;23.15;43.39
48872;BME280;36154;51.674;7.824;2023-07-08T06:13:45;100941.75;;;23.16;42.98
48872;BME280;36154;51.674;7.824;2023-07-08T06:16:11;100946.06;;;23.17;43.02
48872;BME280;36154;51.674;7.824;2023-07-08T06:18:37;100945.09;;;23.20;43.15
48872;BME280;36154;51.674;7.824;2023-07-08T06:21:03;100941.53;;;23.22;43.44
48872;BME280;36154;51.674;7.824;2023-07-08T06:23:29;100938.91;;;23.24;43.13
48872;BME280;36154;51.674;7.824;2023-07-08T06:25:55;100946.53;;;23.29;43.39
48872;BME280;36154;51.674;7.824;2023-07-08T06:28:21;100947.28;;;23.32;43.07
48872;BME280;36154;51.674;7.824;2023-07-08T06:30:47;100941.09;;;23.35;43.36
48872;BME280;36154;51.674;7.824;2023-07-08T06:33:13;100941.91;;;23.37;43.04
48872;BME280;36154;51.674;7.824;2023-07-08T06:35:40;100937.44;;;23.40;43.05
48872;BME280;36154;51.674;7.824;2023-07-08T06:38:06;100929.66;;;23.40;43.19
48872;BME280;36154;51.674;7.824;2023-07-08T06:40:33;100937.25;;;23.45;42.96
48872;BME280;36154;51.674;7.824;2023-07-08T06:42:59;100944.16;;;23.46;43.05
48872;BME280;36154;51.674;7.824;2023-07-08T06:45:27;100936.25;;;23.49;42.74
48872;BME280;36154;51.674;7.824;2023-07-08T06:47:53;100938.75;;;23.52;42.83
48872;BME280;36154;51.674;7.824;2023-07-08T06:50:18;100943.00;;;23.55;42.92
48872;BME280;36154;51.674;7.824;2023-07-08T06:52:44;100941.22;;;23.57;42.67
48872;BME280;36154;51.674;7.824;2023-07-08T06:55:10;100942.84;;;23.59;42.72
48872;BME280;36154;51.674;7.824;2023-07-08T06:57:36;100942.78;;;23.61;42.65
48872;BME280;36154;51.674;7.824;2023-07-08T07:00:07;100939.25;;;23.63;42.50
48872;BME280;36154;51.674;7.824;2023-07-08T07:02:33;100946.06;;;23.66;42.31
48872;BME280;36154;51.674;7.824;2023-07-08T07:04:58;100943.41;;;23.68;42.38
48872;BME280;36154;51.674;7.824;2023-07-08T07:07:24;100938.09;;;23.71;42.38
48872;BME280;36154;51.674;7.824;2023-07-08T07:09:50;100941.50;;;23.73;42.34
48872;BME280;36154;51.674;7.824;2023-07-08T07:12:15;100938.00;;;23.74;42.63
48872;BME280;36154;51.674;7.824;2023-07-08T07:14:41;100937.88;;;23.77;42.76
48872;BME280;36154;51.674;7.824;2023-07-08T07:17:06;100941.28;;;23.79;42.48
48872;BME280;36154;51.674;7.824;2023-07-08T07:19:32;100930.81;;;23.80;42.66
48872;BME280;36154;51.674;7.824;2023-07-08T07:21:58;100935.03;;;23.83;42.17
48872;BME280;36154;51.674;7.824;2023-07-08T07:24:24;100938.34;;;23.87;42.43
48872;BME280;36154;51.674;7.824;2023-07-08T07:26:50;100940.91;;;23.88;42.44
48872;BME280;36154;51.674;7.824;2023-07-08T07:29:17;100933.88;;;23.90;42.08
48872;BME280;36154;51.674;7.824;2023-07-08T07:31:42;100938.97;;;23.93;42.29
48872;BME280;36154;51.674;7.824;2023-07-08T07:34:08;100932.81;;;23.96;42.61
48872;BME280;36154;51.674;7.824;2023-07-08T07:36:34;100930.94;;;23.99;42.44
48872;BME280;36154;51.674;7.824;2023-07-08T07:38:59;100940.44;;;24.00;42.27
48872;BME280;36154;51.674;7.824;2023-07-08T07:41:25;100942.84;;;24.05;42.41
48872;BME280;36154;51.674;7.824;2023-07-08T07:43:51;100947.94;;;24.08;42.33
48872;BME280;36154;51.674;7.824;2023-07-08T07:46:16;100936.59;;;24.11;42.35
48872;BME280;36154;51.674;7.824;2023-07-08T07:48:42;100945.16;;;24.13;42.52
48872;BME280;36154;51.674;7.824;2023-07-08T07:51:08;100939.00;;;24.15;42.47
48872;BME280;36154;51.674;7.824;2023-07-08T07:53:38;100929.31;;;24.19;42.67
48872;BME280;36154;51.674;7.824;2023-07-08T07:56:04;100934.38;;;24.22;42.45
48872;BME280;36154;51.674;7.824;2023-07-08T07:58:30;100936.88;;;24.25;42.12
48872;BME280;36154;51.674;7.824;2023-07-08T08:00:56;100934.25;;;24.25;42.22
48872;BME280;36154;51.674;7.824;2023-07-08T08:03:22;100938.50;;;24.29;42.11
48872;BME280;36154;51.674;7.824;2023-07-08T08:05:48;100943.63;;;24.31;42.16
48872;BME280;36154;51.674;7.824;2023-07-08T08:08:15;100944.34;;;24.34;42.04
48872;BME280;36154;51.674;7.824;2023-07-08T08:10:42;100946.84;;;24.38;42.40
48872;BME280;36154;51.674;7.824;2023-07-08T08:13:08;100946.78;;;24.39;42.22
48872;BME280;36154;51.674;7.824;2023-07-08T08:15:33;100947.56;;;24.41;41.97
48872;BME280;36154;51.674;7.824;2023-07-08T08:17:59;100944.84;;;24.44;41.82
48872;BME280;36154;51.674;7.824;2023-07-08T08:20:25;100950.88;;;24.45;41.86
48872;BME280;36154;51.674;7.824;2023-07-08T08:22:51;100948.28;;;24.45;41.85
48872;BME280;36154;51.674;7.824;2023-07-08T08:25:18;100943.84;;;24.47;41.74
48872;BME280;36154;51.674;7.824;2023-07-08T08:27:44;100947.31;;;24.47;42.29
48872;BME280;36154;51.674;7.824;2023-07-08T08:30:11;100948.16;;;24.48;41.94
48872;BME280;36154;51.674;7.824;2023-07-08T08:32:37;100949.78;;;24.50;41.75
48872;BME280;36154;51.674;7.824;2023-07-08T08:35:03;100947.13;;;24.52;42.04
48872;BME280;36154;51.674;7.824;2023-07-08T08:37:29;100954.88;;;24.53;41.82
48872;BME280;36154;51.674;7.824;2023-07-08T08:39:55;100957.41;;;24.55;42.37
48872;BME280;36154;51.674;7.824;2023-07-08T08:42:45;100960.78;;;24.57;42.32
48872;BME280;36154;51.674;7.824;2023-07-08T08:45:17;100959.84;;;24.60;41.96
48872;BME280;36154;51.674;7.824;2023-07-08T08:47:45;100954.50;;;24.63;41.84
48872;BME280;36154;51.674;7.824;2023-07-08T08:52:50;100958.59;;;24.68;42.05
48872;BME280;36154;51.674;7.824;2023-07-08T08:55:17;100957.66;;;24.71;42.60
48872;BME280;36154;51.674;7.824;2023-07-08T09:00:21;100958.38;;;24.74;42.36
48872;BME280;36154;51.674;7.824;2023-07-08T09:05:17;100957.31;;;24.79;42.28
48872;BME280;36154;51.674;7.824;2023-07-08T09:10:44;100956.28;;;24.83;42.38
48872;BME280;36154;51.674;7.824;2023-07-08T09:13:21;100963.13;;;24.85;42.31
48872;BME280;36154;51.674;7.824;2023-07-08T09:15:50;100950.78;;;24.89;42.62
48872;BME280;36154;51.674;7.824;2023-07-08T09:18:27;100946.38;;;24.91;42.33
48872;BME280;36154;51.674;7.824;2023-07-08T09:20:57;100942.84;;;24.92;42.47
48872;BME280;36154;51.674;7.824;2023-07-08T09:23:30;100941.94;;;24.93;42.73
48872;BME280;36154;51.674;7.824;2023-07-08T09:26:05;100943.63;;;24.94;42.47
48872;BME280;36154;51.674;7.824;2023-07-08T09:28:39;100939.28;;;24.95;42.52
48872;BME280;36154;51.674;7.824;2023-07-08T09:31:07;100938.41;;;24.94;42.24
48872;BME280;36154;51.674;7.824;2023-07-08T09:33:37;100940.16;;;24.95;42.35
48872;BME280;36154;51.674;7.824;2023-07-08T09:36:16;100935.03;;;24.92;42.19
48872;BME280;36154;51.674;7.824;2023-07-08T09:38:42;100942.69;;;24.97;42.20
48872;BME280;36154;51.674;7.824;2023-07-08T09:41:09;100945.25;;;24.98;42.50
48872;BME280;36154;51.674;7.824;2023-07-08T09:43:37;100938.31;;;24.97;42.36
48872;BME280;36154;51.674;7.824;2023-07-08T09:46:03;100931.28;;;24.99;42.15
48872;BME280;36154;51.674;7.824;2023-07-08T09:48:34;100932.06;;;25.01;41.89
48872;BME280;36154;51.674;7.824;2023-07-08T09:51:00;100933.81;;;25.01;42.27
48872;BME280;36154;51.674;7.824;2023-07-08T09:53:26;100934.56;;;25.04;42.33
48872;BME280;36154;51.674;7.824;2023-07-08T09:55:53;100936.09;;;25.08;42.27
48872;BME280;36154;51.674;7.824;2023-07-08T09:58:25;100929.94;;;25.11;41.91
48872;BME280;36154;51.674;7.824;2023-07-08T10:00:54;100940.94;;;25.18;41.74
48872;BME280;36154;51.674;7.824;2023-07-08T10:03:23;100938.22;;;25.19;42.09
48872;BME280;36154;51.674;7.824;2023-07-08T10:05:52;100932.88;;;25.22;41.77
48872;BME280;36154;51.674;7.824;2023-07-08T10:08:24;100940.66;;;25.24;42.06
48872;BME280;36154;51.674;7.824;2023-07-08T10:11:39;100938.81;;;25.26;41.65
48872;BME280;36154;51.674;7.824;2023-07-08T10:13:50;100937.13;;;25.25;41.69
48872;BME280;36154;51.674;7.824;2023-07-08T10:16:24;100942.22;;;25.28;41.67
48872;BME280;36154;51.674;7.824;2023-07-08T10:18:50;100938.69;;;25.29;41.47
48872;BME280;36154;51.674;7.824;2023-07-08T10:21:29;100941.22;;;25.31;41.54
48872;BME280;36154;51.674;7.824;2023-07-08T10:24:49;100932.44;;;25.33;41.60
48872;BME280;36154;51.674;7.824;2023-07-08T10:26:55;100931.44;;;25.36;41.34
48872;BME280;36154;51.674;7.824;2023-07-08T10:29:34;100927.84;;;25.38;41.18
48872;BME280;36154;51.674;7.824;2023-07-08T10:32:28;100922.63;;;25.38;41.48
48872;BME280;36154;51.674;7.824;2023-07-08T11:04:13;100916.59;;;25.57;38.67
48872;BME280;36154;51.674;7.824;2023-07-08T11:07:03;100904.44;;;25.56;38.41
48872;BME280;36154;51.674;7.824;2023-07-08T11:09:50;100918.25;;;25.58;38.08
48872;BME280;36154;51.674;7.824;2023-07-08T11:12:28;100914.75;;;25.59;38.18
48872;BME280;36154;51.674;7.824;2023-07-08T11:15:36;100911.22;;;25.60;38.13
48872;BME280;36154;51.674;7.824;2023-07-08T11:18:13;100903.47;;;25.58;38.25
48872;BME280;36154;51.674;7.824;2023-07-08T11:21:14;100902.59;;;25.58;37.93
48872;BME280;36154;51.674;7.824;2023-07-08T11:23:47;100900.94;;;25.57;37.77
48872;BME280;36154;51.674;7.824;2023-07-08T11:26:38;100895.72;;;25.57;37.70
48872;BME280;36154;51.674;7.824;2023-07-08T11:29:22;100894.88;;;25.56;37.94
48872;BME280;36154;51.674;7.824;2023-07-08T11:31:50;100892.34;;;25.55;37.83
48872;BME280;36154;51.674;7.824;2023-07-08T11:34:18;100892.34;;;25.55;37.79
48872;BME280;36154;51.674;7.824;2023-07-08T11:36:45;100887.94;;;25.55;37.60
48872;BME280;36154;51.674;7.824;2023-07-08T11:42:25;100883.56;;;25.56;37.32
48872;BME280;36154;51.674;7.824;2023-07-08T11:44:56;100886.81;;;25.61;36.85
48872;BME280;36154;51.674;7.824;2023-07-08T11:47:40;100884.84;;;25.66;36.32
48872;BME280;36154;51.674;7.824;2023-07-08T11:50:31;100874.28;;;25.69;36.04
48872;BME280;36154;51.674;7.824;2023-07-08T11:53:00;100873.38;;;25.70;35.54
48872;BME280;36154;51.674;7.824;2023-07-08T11:55:35;100864.69;;;25.70;35.67
48872;BME280;36154;51.674;7.824;2023-07-08T11:58:06;100866.38;;;25.71;35.10
48872;BME280;36154;51.674;7.824;2023-07-08T12:00:33;100870.63;;;25.73;35.01
48872;BME280;36154;51.674;7.824;2023-07-08T12:03:18;100865.41;;;25.73;34.73
48872;BME280;36154;51.674;7.824;2023-07-08T12:05:44;100868.84;;;25.74;35.16
48872;BME280;36154;51.674;7.824;2023-07-08T12:08:15;100858.34;;;25.75;34.68
48872;BME280;36154;51.674;7.824;2023-07-08T12:10:52;100852.28;;;25.75;34.06
48872;BME280;36154;51.674;7.824;2023-07-08T12:13:23;100857.34;;;25.78;34.03
48872;BME280;36154;51.674;7.824;2023-07-08T12:15:49;100852.03;;;25.79;34.31
48872;BME280;36154;51.674;7.824;2023-07-08T12:18:24;100843.31;;;25.80;34.51
48872;BME280;36154;51.674;7.824;2023-07-08T12:20:59;100856.34;;;25.80;33.96
48872;BME280;36154;51.674;7.824;2023-07-08T12:23:27;100857.81;;;25.86;34.22
48872;BME280;36154;51.674;7.824;2023-07-08T12:25:54;100855.91;;;25.90;33.88
48872;BME280;36154;51.674;7.824;2023-07-08T12:28:21;100853.28;;;25.90;33.63
48872;BME280;36154;51.674;7.824;2023-07-08T12:30:48;100838.41;;;25.92;33.43
48872;BME280;36154;51.674;7.824;2023-07-08T12:33:18;100840.97;;;25.93;33.55
48872;BME280;36154;51.674;7.824;2023-07-08T12:35:45;100840.97;;;25.93;33.19
48872;BME280;36154;51.674;7.824;2023-07-08T12:40:46;100849.47;;;25.97;33.10
48872;BME280;36154;51.674;7.824;2023-07-08T12:43:12;100841.66;;;25.97;33.15
48872;BME280;36154;51.674;7.824;2023-07-08T12:45:38;100851.22;;;25.96;33.02
48872;BME280;36154;51.674;7.824;2023-07-08T12:48:03;100840.78;;;25.96;33.08
48872;BME280;36154;51.674;7.824;2023-07-08T12:50:29;100845.03;;;25.99;32.74
48872;BME280;36154;51.674;7.824;2023-07-08T12:52:55;100857.78;;;26.05;32.37
48872;BME280;36154;51.674;7.824;2023-07-08T12:55:22;100841.03;;;26.09;32.62
48872;BME280;36154;51.674;7.824;2023-07-08T12:57:50;100834.91;;;26.10;32.91
48872;BME280;36154;51.674;7.824;2023-07-08T13:00:29;100841.13;;;26.08;32.91
48872;BME280;36154;51.674;7.824;2023-07-08T13:03:17;100841.25;;;26.05;33.05
48872;BME280;36154;51.674;7.824;2023-07-08T13:05:44;100837.19;;;25.99;33.73
48872;BME280;36154;51.674;7.824;2023-07-08T13:08:12;100844.25;;;25.97;33.88
48872;BME280;36154;51.674;7.824;2023-07-08T13:10:39;100842.63;;;25.94;34.42
48872;BME280;36154;51.674;7.824;2023-07-08T13:13:07;100843.66;;;25.92;34.47
48872;BME280;36154;51.674;7.824;2023-07-08T13:15:38;100845.47;;;25.90;34.62
48872;BME280;36154;51.674;7.824;2023-07-08T13:18:08;100851.53;;;25.90;34.75
48872;BME280;36154;51.674;7.824;2023-07-08T13:20:38;100851.69;;;25.87;34.69
48872;BME280;36154;51.674;7.824;2023-07-08T13:23:03;100842.22;;;25.84;34.91
48872;BME280;36154;51.674;7.824;2023-07-08T13:25:31;100852.66;;;25.84;34.62
48872;BME280;36154;51.674;7.824;2023-07-08T13:28:01;100846.53;;;25.86;34.83
48872;BME280;36154;51.674;7.824;2023-07-08T13:30:29;100858.75;;;25.85;34.44
48872;BME280;36154;51.674;7.824;2023-07-08T13:32:59;100849.06;;;25.87;34.36
48872;BME280;36154;51.674;7.824;2023-07-08T13:35:28;100849.97;;;25.86;34.55
48872;BME280;36154;51.674;7.824;2023-07-08T13:38:00;100848.25;;;25.87;34.61
48872;BME280;36154;51.674;7.824;2023-07-08T13:40:30;100846.63;;;25.84;34.48
48872;BME280;36154;51.674;7.824;2023-07-08T13:42:55;100844.84;;;25.84;34.62
48872;BME280;36154;51.674;7.824;2023-07-08T13:45:27;100843.25;;;25.82;34.79
48872;BME280;36154;51.674;7.824;2023-07-08T13:48:13;100851.13;;;25.80;34.76
48872;BME280;36154;51.674;7.824;2023-07-08T13:50:49;100841.59;;;25.79;34.59